sensor_id;sensor_type;location;lat;lon;timestamp;P1;durP1;ratioP1;P2;durP2;ratioP2
16516;SDS011;8371;52.272;9.746;2022-11-27T00:00:41;5.20;;;4.90;;
16516;SDS011;8371;52.272;9.746;2022-11-27T00:03:07;5.23;;;4.93;;
16516;SDS011;8371;52.272;9.746;2022-11-27T00:05:33;5.20;;;5.00;;
16516;SDS011;8371;52.272;9.746;2022-11-27T00:07:59;4.87;;;4.67;;
16516;SDS011;8371;52.272;9.746;2022-11-27T00:10:24;4.77;;;4.57;;
16516;SDS011;8371;52.272;9.746;2022-11-27T00:12:50;4.73;;;4.53;;
16516;SDS011;8371;52.272;9.746;2022-11-27T00:15:16;5.33;;;5.03;;
16516;SDS011;8371;52.272;9.746;2022-11-27T00:17:43;4.33;;;4.13;;
16516;SDS011;8371;52.272;9.746;2022-11-27T00:20:09;4.97;;;4.67;;
16516;SDS011;8371;52.272;9.746;2022-11-27T00:22:35;5.23;;;4.90;;
16516;SDS011;8371;52.272;9.746;2022-11-27T00:25:00;4.97;;;4.67;;
16516;SDS011;8371;52.272;9.746;2022-11-27T00:27:26;4.83;;;4.63;;
16516;SDS011;8371;52.272;9.746;2022-11-27T00:29:52;4.80;;;4.60;;
16516;SDS011;8371;52.272;9.746;2022-11-27T00:32:18;5.87;;;5.67;;
16516;SDS011;8371;52.272;9.746;2022-11-27T00:34:43;5.17;;;4.97;;
16516;SDS011;8371;52.272;9.746;2022-11-27T00:37:09;5.80;;;5.40;;
16516;SDS011;8371;52.272;9.746;2022-11-27T00:39:36;5.60;;;5.30;;
16516;SDS011;8371;52.272;9.746;2022-11-27T00:42:02;5.77;;;4.80;;
16516;SDS011;8371;52.272;9.746;2022-11-27T00:44:27;5.20;;;4.90;;
16516;SDS011;8371;52.272;9.746;2022-11-27T00:46:53;5.57;;;5.27;;
16516;SDS011;8371;52.272;9.746;2022-11-27T00:49:19;5.30;;;5.00;;
16516;SDS011;8371;52.272;9.746;2022-11-27T00:51:45;5.10;;;4.90;;
16516;SDS011;8371;52.272;9.746;2022-11-27T00:54:10;5.37;;;4.97;;
16516;SDS011;8371;52.272;9.746;2022-11-27T00:56:36;5.20;;;4.90;;
16516;SDS011;8371;52.272;9.746;2022-11-27T00:59:04;5.50;;;5.10;;
16516;SDS011;8371;52.272;9.746;2022-11-27T01:01:33;4.77;;;4.57;;
16516;SDS011;8371;52.272;9.746;2022-11-27T01:04:04;5.07;;;4.83;;
16516;SDS011;8371;52.272;9.746;2022-11-27T01:06:29;5.07;;;4.70;;
16516;SDS011;8371;52.272;9.746;2022-11-27T01:08:56;5.37;;;5.03;;
16516;SDS011;8371;52.272;9.746;2022-11-27T01:11:23;5.60;;;5.30;;
16516;SDS011;8371;52.272;9.746;2022-11-27T01:13:51;5.50;;;5.03;;
16516;SDS011;8371;52.272;9.746;2022-11-27T01:16:19;4.73;;;4.43;;
16516;SDS011;8371;52.272;9.746;2022-11-27T01:18:47;5.67;;;5.17;;
16516;SDS011;8371;52.272;9.746;2022-11-27T01:21:15;4.50;;;4.30;;
16516;SDS011;8371;52.272;9.746;2022-11-27T01:23:42;4.77;;;4.43;;
16516;SDS011;8371;52.272;9.746;2022-11-27T01:26:09;4.83;;;4.63;;
16516;SDS011;8371;52.272;9.746;2022-11-27T01:28:36;5.00;;;4.77;;
16516;SDS011;8371;52.272;9.746;2022-11-27T01:31:05;4.80;;;4.60;;
16516;SDS011;8371;52.272;9.746;2022-11-27T01:33:32;4.93;;;4.63;;
16516;SDS011;8371;52.272;9.746;2022-11-27T01:36:00;5.87;;;5.30;;
16516;SDS011;8371;52.272;9.746;2022-11-27T01:38:27;5.17;;;4.87;;
16516;SDS011;8371;52.272;9.746;2022-11-27T01:48:59;4.87;;;4.67;;
16516;SDS011;8371;52.272;9.746;2022-11-27T01:51:28;4.90;;;4.63;;
16516;SDS011;8371;52.272;9.746;2022-11-27T01:53:55;5.03;;;4.83;;
16516;SDS011;8371;52.272;9.746;2022-11-27T01:56:21;4.93;;;4.73;;
16516;SDS011;8371;52.272;9.746;2022-11-27T01:58:48;5.10;;;4.90;;
16516;SDS011;8371;52.272;9.746;2022-11-27T02:01:15;5.40;;;5.03;;
16516;SDS011;8371;52.272;9.746;2022-11-27T02:03:41;5.00;;;4.77;;
16516;SDS011;8371;52.272;9.746;2022-11-27T02:06:09;4.80;;;4.50;;
16516;SDS011;8371;52.272;9.746;2022-11-27T02:08:38;5.10;;;4.73;;
16516;SDS011;8371;52.272;9.746;2022-11-27T02:11:11;4.93;;;4.63;;
16516;SDS011;8371;52.272;9.746;2022-11-27T02:13:43;5.30;;;5.00;;
16516;SDS011;8371;52.272;9.746;2022-11-27T02:16:32;4.90;;;4.70;;
16516;SDS011;8371;52.272;9.746;2022-11-27T02:19:06;5.00;;;4.80;;
16516;SDS011;8371;52.272;9.746;2022-11-27T02:21:49;5.20;;;4.90;;
16516;SDS011;8371;52.272;9.746;2022-11-27T02:27:10;5.33;;;4.93;;
16516;SDS011;8371;52.272;9.746;2022-11-27T02:29:46;4.80;;;4.50;;
16516;SDS011;8371;52.272;9.746;2022-11-27T02:32:23;5.40;;;5.10;;
16516;SDS011;8371;52.272;9.746;2022-11-27T02:37:25;4.53;;;4.27;;
16516;SDS011;8371;52.272;9.746;2022-11-27T02:40:05;5.77;;;5.47;;
16516;SDS011;8371;52.272;9.746;2022-11-27T02:42:38;4.70;;;4.50;;
16516;SDS011;8371;52.272;9.746;2022-11-27T02:45:10;5.33;;;5.13;;
16516;SDS011;8371;52.272;9.746;2022-11-27T02:47:38;5.13;;;4.83;;
16516;SDS011;8371;52.272;9.746;2022-11-27T02:50:11;6.20;;;5.90;;
16516;SDS011;8371;52.272;9.746;2022-11-27T02:52:43;5.23;;;4.80;;
16516;SDS011;8371;52.272;9.746;2022-11-27T02:55:12;5.43;;;5.13;;
16516;SDS011;8371;52.272;9.746;2022-11-27T02:57:40;6.83;;;6.43;;
16516;SDS011;8371;52.272;9.746;2022-11-27T03:00:07;5.93;;;5.63;;
16516;SDS011;8371;52.272;9.746;2022-11-27T03:02:35;6.77;;;6.23;;
16516;SDS011;8371;52.272;9.746;2022-11-27T03:05:07;6.03;;;5.73;;
16516;SDS011;8371;52.272;9.746;2022-11-27T03:07:43;6.13;;;5.83;;
16516;SDS011;8371;52.272;9.746;2022-11-27T03:10:18;5.67;;;5.27;;
16516;SDS011;8371;52.272;9.746;2022-11-27T03:12:46;5.90;;;5.60;;
16516;SDS011;8371;52.272;9.746;2022-11-27T03:15:13;5.97;;;5.67;;
16516;SDS011;8371;52.272;9.746;2022-11-27T03:17:51;5.30;;;5.10;;
16516;SDS011;8371;52.272;9.746;2022-11-27T03:22:53;5.43;;;5.13;;
16516;SDS011;8371;52.272;9.746;2022-11-27T03:25:20;5.60;;;5.30;;
16516;SDS011;8371;52.272;9.746;2022-11-27T03:27:57;5.00;;;4.73;;
16516;SDS011;8371;52.272;9.746;2022-11-27T03:30:25;5.10;;;4.90;;
16516;SDS011;8371;52.272;9.746;2022-11-27T03:32:51;6.30;;;6.00;;
16516;SDS011;8371;52.272;9.746;2022-11-27T03:35:18;5.33;;;5.03;;
16516;SDS011;8371;52.272;9.746;2022-11-27T03:37:46;5.63;;;5.33;;
16516;SDS011;8371;52.272;9.746;2022-11-27T03:40:13;5.00;;;4.80;;
16516;SDS011;8371;52.272;9.746;2022-11-27T03:42:48;5.27;;;5.07;;
16516;SDS011;8371;52.272;9.746;2022-11-27T03:48:16;4.70;;;4.50;;
16516;SDS011;8371;52.272;9.746;2022-11-27T03:53:50;4.83;;;4.63;;
16516;SDS011;8371;52.272;9.746;2022-11-27T03:59:01;4.80;;;4.50;;
16516;SDS011;8371;52.272;9.746;2022-11-27T04:01:32;4.47;;;4.27;;
16516;SDS011;8371;52.272;9.746;2022-11-27T04:03:58;4.30;;;4.10;;
16516;SDS011;8371;52.272;9.746;2022-11-27T04:06:26;4.50;;;4.20;;
16516;SDS011;8371;52.272;9.746;2022-11-27T04:08:52;5.00;;;4.77;;
16516;SDS011;8371;52.272;9.746;2022-11-27T04:11:17;4.50;;;4.30;;
16516;SDS011;8371;52.272;9.746;2022-11-27T04:13:43;4.83;;;4.53;;
16516;SDS011;8371;52.272;9.746;2022-11-27T04:16:09;4.77;;;4.47;;
16516;SDS011;8371;52.272;9.746;2022-11-27T04:18:35;4.40;;;4.20;;
16516;SDS011;8371;52.272;9.746;2022-11-27T04:21:01;4.30;;;4.10;;
16516;SDS011;8371;52.272;9.746;2022-11-27T04:23:27;4.53;;;4.17;;
16516;SDS011;8371;52.272;9.746;2022-11-27T04:25:54;4.97;;;4.53;;
16516;SDS011;8371;52.272;9.746;2022-11-27T04:28:20;4.20;;;4.00;;
16516;SDS011;8371;52.272;9.746;2022-11-27T04:30:49;4.67;;;4.47;;
16516;SDS011;8371;52.272;9.746;2022-11-27T04:33:17;4.70;;;4.40;;
16516;SDS011;8371;52.272;9.746;2022-11-27T04:35:43;5.07;;;4.53;;
16516;SDS011;8371;52.272;9.746;2022-11-27T04:38:09;4.57;;;4.37;;
16516;SDS011;8371;52.272;9.746;2022-11-27T04:40:34;4.57;;;4.27;;
16516;SDS011;8371;52.272;9.746;2022-11-27T04:43:00;4.80;;;4.50;;
16516;SDS011;8371;52.272;9.746;2022-11-27T04:45:26;4.80;;;4.43;;
16516;SDS011;8371;52.272;9.746;2022-11-27T04:47:52;4.63;;;4.33;;
16516;SDS011;8371;52.272;9.746;2022-11-27T04:50:17;4.57;;;4.37;;
16516;SDS011;8371;52.272;9.746;2022-11-27T04:52:43;4.60;;;4.40;;
16516;SDS011;8371;52.272;9.746;2022-11-27T04:55:09;4.60;;;4.40;;
16516;SDS011;8371;52.272;9.746;2022-11-27T04:57:34;4.77;;;4.47;;
16516;SDS011;8371;52.272;9.746;2022-11-27T05:00:00;4.50;;;4.30;;
16516;SDS011;8371;52.272;9.746;2022-11-27T05:02:28;5.07;;;4.63;;
16516;SDS011;8371;52.272;9.746;2022-11-27T05:04:54;4.70;;;4.50;;
16516;SDS011;8371;52.272;9.746;2022-11-27T05:07:20;4.57;;;4.27;;
16516;SDS011;8371;52.272;9.746;2022-11-27T05:09:46;4.77;;;4.47;;
16516;SDS011;8371;52.272;9.746;2022-11-27T05:12:12;4.27;;;4.07;;
16516;SDS011;8371;52.272;9.746;2022-11-27T05:14:37;3.93;;;3.83;;
16516;SDS011;8371;52.272;9.746;2022-11-27T05:17:03;3.53;;;3.43;;
16516;SDS011;8371;52.272;9.746;2022-11-27T05:19:29;3.47;;;3.27;;
16516;SDS011;8371;52.272;9.746;2022-11-27T05:21:56;3.83;;;3.53;;
16516;SDS011;8371;52.272;9.746;2022-11-27T05:24:22;4.13;;;3.93;;
16516;SDS011;8371;52.272;9.746;2022-11-27T05:26:50;3.90;;;3.70;;
16516;SDS011;8371;52.272;9.746;2022-11-27T05:29:16;3.93;;;3.73;;
16516;SDS011;8371;52.272;9.746;2022-11-27T05:31:42;3.93;;;3.60;;
16516;SDS011;8371;52.272;9.746;2022-11-27T05:34:08;3.80;;;3.50;;
16516;SDS011;8371;52.272;9.746;2022-11-27T05:36:36;3.20;;;3.10;;
16516;SDS011;8371;52.272;9.746;2022-11-27T05:39:03;3.93;;;3.20;;
16516;SDS011;8371;52.272;9.746;2022-11-27T05:41:31;3.30;;;3.00;;
16516;SDS011;8371;52.272;9.746;2022-11-27T05:43:58;3.33;;;3.23;;
16516;SDS011;8371;52.272;9.746;2022-11-27T05:46:23;5.30;;;3.37;;
16516;SDS011;8371;52.272;9.746;2022-11-27T05:48:49;3.67;;;3.47;;
16516;SDS011;8371;52.272;9.746;2022-11-27T05:51:15;3.87;;;3.57;;
16516;SDS011;8371;52.272;9.746;2022-11-27T05:53:41;3.23;;;3.03;;
16516;SDS011;8371;52.272;9.746;2022-11-27T05:56:09;3.40;;;3.20;;
16516;SDS011;8371;52.272;9.746;2022-11-27T05:58:36;3.50;;;3.20;;
16516;SDS011;8371;52.272;9.746;2022-11-27T06:01:03;3.87;;;3.23;;
16516;SDS011;8371;52.272;9.746;2022-11-27T06:03:30;4.13;;;3.83;;
16516;SDS011;8371;52.272;9.746;2022-11-27T06:05:55;3.50;;;3.30;;
16516;SDS011;8371;52.272;9.746;2022-11-27T06:08:21;3.03;;;2.93;;
16516;SDS011;8371;52.272;9.746;2022-11-27T06:10:48;3.83;;;3.17;;
16516;SDS011;8371;52.272;9.746;2022-11-27T06:13:14;3.47;;;3.37;;
16516;SDS011;8371;52.272;9.746;2022-11-27T06:15:40;3.20;;;3.00;;
16516;SDS011;8371;52.272;9.746;2022-11-27T06:18:06;3.20;;;3.10;;
16516;SDS011;8371;52.272;9.746;2022-11-27T06:20:32;3.60;;;3.40;;
16516;SDS011;8371;52.272;9.746;2022-11-27T06:22:58;3.30;;;3.10;;
16516;SDS011;8371;52.272;9.746;2022-11-27T06:25:24;3.23;;;3.03;;
16516;SDS011;8371;52.272;9.746;2022-11-27T06:27:51;3.70;;;3.43;;
16516;SDS011;8371;52.272;9.746;2022-11-27T06:30:17;3.10;;;3.00;;
16516;SDS011;8371;52.272;9.746;2022-11-27T06:32:43;3.07;;;2.97;;
16516;SDS011;8371;52.272;9.746;2022-11-27T06:35:09;3.43;;;3.23;;
16516;SDS011;8371;52.272;9.746;2022-11-27T06:37:35;3.30;;;3.17;;
16516;SDS011;8371;52.272;9.746;2022-11-27T06:40:01;3.13;;;3.03;;
16516;SDS011;8371;52.272;9.746;2022-11-27T06:42:28;3.07;;;2.87;;
16516;SDS011;8371;52.272;9.746;2022-11-27T06:44:54;3.90;;;3.70;;
16516;SDS011;8371;52.272;9.746;2022-11-27T06:47:20;3.97;;;3.77;;
16516;SDS011;8371;52.272;9.746;2022-11-27T06:49:46;3.40;;;3.20;;
16516;SDS011;8371;52.272;9.746;2022-11-27T06:52:11;3.83;;;3.53;;
16516;SDS011;8371;52.272;9.746;2022-11-27T06:54:37;3.80;;;3.57;;
16516;SDS011;8371;52.272;9.746;2022-11-27T06:57:03;4.07;;;3.87;;
16516;SDS011;8371;52.272;9.746;2022-11-27T06:59:29;4.20;;;3.90;;
16516;SDS011;8371;52.272;9.746;2022-11-27T07:01:54;3.90;;;3.70;;
16516;SDS011;8371;52.272;9.746;2022-11-27T07:04:20;3.83;;;3.70;;
16516;SDS011;8371;52.272;9.746;2022-11-27T07:06:46;3.13;;;3.03;;
16516;SDS011;8371;52.272;9.746;2022-11-27T07:09:12;3.67;;;3.37;;
16516;SDS011;8371;52.272;9.746;2022-11-27T07:11:38;3.37;;;3.23;;
16516;SDS011;8371;52.272;9.746;2022-11-27T07:14:04;4.30;;;3.80;;
16516;SDS011;8371;52.272;9.746;2022-11-27T07:16:32;3.57;;;3.47;;
16516;SDS011;8371;52.272;9.746;2022-11-27T07:19:00;3.43;;;3.20;;
16516;SDS011;8371;52.272;9.746;2022-11-27T07:21:28;3.57;;;3.37;;
16516;SDS011;8371;52.272;9.746;2022-11-27T07:23:54;3.73;;;3.53;;
16516;SDS011;8371;52.272;9.746;2022-11-27T07:26:22;3.83;;;3.57;;
16516;SDS011;8371;52.272;9.746;2022-11-27T07:28:50;3.33;;;3.23;;
16516;SDS011;8371;52.272;9.746;2022-11-27T07:31:17;4.07;;;3.87;;
16516;SDS011;8371;52.272;9.746;2022-11-27T07:33:44;3.40;;;3.23;;
16516;SDS011;8371;52.272;9.746;2022-11-27T07:36:14;4.03;;;3.80;;
16516;SDS011;8371;52.272;9.746;2022-11-27T07:38:42;3.83;;;3.70;;
16516;SDS011;8371;52.272;9.746;2022-11-27T07:41:09;3.70;;;3.50;;
16516;SDS011;8371;52.272;9.746;2022-11-27T07:43:35;3.03;;;2.80;;
16516;SDS011;8371;52.272;9.746;2022-11-27T07:46:02;3.90;;;3.60;;
16516;SDS011;8371;52.272;9.746;2022-11-27T07:48:29;4.13;;;3.83;;
16516;SDS011;8371;52.272;9.746;2022-11-27T07:50:54;3.53;;;3.33;;
16516;SDS011;8371;52.272;9.746;2022-11-27T07:53:20;3.80;;;3.60;;
16516;SDS011;8371;52.272;9.746;2022-11-27T07:55:46;3.60;;;3.40;;
16516;SDS011;8371;52.272;9.746;2022-11-27T07:58:11;4.17;;;3.87;;
16516;SDS011;8371;52.272;9.746;2022-11-27T08:00:37;3.57;;;3.37;;
16516;SDS011;8371;52.272;9.746;2022-11-27T08:03:03;4.03;;;3.83;;
16516;SDS011;8371;52.272;9.746;2022-11-27T08:05:29;2.83;;;2.63;;
16516;SDS011;8371;52.272;9.746;2022-11-27T08:07:58;3.30;;;3.20;;
16516;SDS011;8371;52.272;9.746;2022-11-27T08:10:24;3.77;;;3.53;;
16516;SDS011;8371;52.272;9.746;2022-11-27T08:12:50;4.03;;;3.70;;
16516;SDS011;8371;52.272;9.746;2022-11-27T08:15:16;4.27;;;3.97;;
16516;SDS011;8371;52.272;9.746;2022-11-27T08:17:42;4.03;;;3.83;;
16516;SDS011;8371;52.272;9.746;2022-11-27T08:20:08;3.73;;;3.53;;
16516;SDS011;8371;52.272;9.746;2022-11-27T08:22:34;3.77;;;3.57;;
16516;SDS011;8371;52.272;9.746;2022-11-27T08:25:00;3.83;;;3.53;;
16516;SDS011;8371;52.272;9.746;2022-11-27T08:27:26;3.80;;;3.60;;
16516;SDS011;8371;52.272;9.746;2022-11-27T08:29:51;3.93;;;3.73;;
16516;SDS011;8371;52.272;9.746;2022-11-27T08:32:17;4.23;;;4.03;;
16516;SDS011;8371;52.272;9.746;2022-11-27T08:34:43;4.07;;;3.87;;
16516;SDS011;8371;52.272;9.746;2022-11-27T08:37:08;4.20;;;3.93;;
16516;SDS011;8371;52.272;9.746;2022-11-27T08:39:34;3.40;;;3.20;;
16516;SDS011;8371;52.272;9.746;2022-11-27T08:42:00;3.50;;;3.30;;
16516;SDS011;8371;52.272;9.746;2022-11-27T08:44:25;2.90;;;2.80;;
16516;SDS011;8371;52.272;9.746;2022-11-27T08:46:51;3.73;;;3.57;;
16516;SDS011;8371;52.272;9.746;2022-11-27T08:49:17;3.47;;;3.27;;
16516;SDS011;8371;52.272;9.746;2022-11-27T08:51:43;3.10;;;3.00;;
16516;SDS011;8371;52.272;9.746;2022-11-27T08:54:08;3.20;;;3.00;;
16516;SDS011;8371;52.272;9.746;2022-11-27T08:56:34;3.90;;;3.60;;
16516;SDS011;8371;52.272;9.746;2022-11-27T08:59:00;3.77;;;3.50;;
16516;SDS011;8371;52.272;9.746;2022-11-27T09:01:27;3.20;;;3.10;;
16516;SDS011;8371;52.272;9.746;2022-11-27T09:03:54;3.30;;;3.10;;
16516;SDS011;8371;52.272;9.746;2022-11-27T09:06:21;3.47;;;3.30;;
16516;SDS011;8371;52.272;9.746;2022-11-27T09:08:48;3.47;;;3.10;;
16516;SDS011;8371;52.272;9.746;2022-11-27T09:11:17;3.10;;;3.00;;
16516;SDS011;8371;52.272;9.746;2022-11-27T09:13:44;3.93;;;3.73;;
16516;SDS011;8371;52.272;9.746;2022-11-27T09:16:11;3.33;;;3.13;;
16516;SDS011;8371;52.272;9.746;2022-11-27T09:18:38;3.60;;;3.40;;
16516;SDS011;8371;52.272;9.746;2022-11-27T09:21:07;4.03;;;3.67;;
16516;SDS011;8371;52.272;9.746;2022-11-27T09:23:34;3.47;;;3.27;;
16516;SDS011;8371;52.272;9.746;2022-11-27T09:26:03;3.50;;;3.20;;
16516;SDS011;8371;52.272;9.746;2022-11-27T09:28:33;3.70;;;3.50;;
16516;SDS011;8371;52.272;9.746;2022-11-27T09:31:00;3.87;;;3.67;;
16516;SDS011;8371;52.272;9.746;2022-11-27T09:33:28;3.50;;;3.30;;
16516;SDS011;8371;52.272;9.746;2022-11-27T09:35:55;3.53;;;3.43;;
16516;SDS011;8371;52.272;9.746;2022-11-27T09:38:21;4.13;;;3.83;;
16516;SDS011;8371;52.272;9.746;2022-11-27T09:40:48;3.50;;;3.33;;
16516;SDS011;8371;52.272;9.746;2022-11-27T09:43:16;3.80;;;3.50;;
16516;SDS011;8371;52.272;9.746;2022-11-27T09:45:47;3.97;;;3.77;;
16516;SDS011;8371;52.272;9.746;2022-11-27T09:48:19;3.80;;;3.50;;
16516;SDS011;8371;52.272;9.746;2022-11-27T09:50:48;3.60;;;3.30;;
16516;SDS011;8371;52.272;9.746;2022-11-27T09:53:25;3.80;;;3.60;;
16516;SDS011;8371;52.272;9.746;2022-11-27T09:55:49;3.53;;;3.33;;
16516;SDS011;8371;52.272;9.746;2022-11-27T10:01:13;3.53;;;3.27;;
16516;SDS011;8371;52.272;9.746;2022-11-27T10:03:39;3.87;;;3.67;;
16516;SDS011;8371;52.272;9.746;2022-11-27T10:09:14;3.97;;;3.77;;
16516;SDS011;8371;52.272;9.746;2022-11-27T10:11:54;3.70;;;3.50;;
16516;SDS011;8371;52.272;9.746;2022-11-27T10:17:22;3.10;;;3.00;;
16516;SDS011;8371;52.272;9.746;2022-11-27T10:19:50;3.50;;;3.40;;
16516;SDS011;8371;52.272;9.746;2022-11-27T10:27:31;3.50;;;3.40;;
16516;SDS011;8371;52.272;9.746;2022-11-27T10:29:55;3.30;;;3.20;;
16516;SDS011;8371;52.272;9.746;2022-11-27T10:32:22;3.27;;;3.13;;
16516;SDS011;8371;52.272;9.746;2022-11-27T10:34:52;3.70;;;3.50;;
16516;SDS011;8371;52.272;9.746;2022-11-27T10:37:27;3.70;;;3.50;;
16516;SDS011;8371;52.272;9.746;2022-11-27T10:39:55;3.80;;;3.50;;
16516;SDS011;8371;52.272;9.746;2022-11-27T10:42:26;3.00;;;2.90;;
16516;SDS011;8371;52.272;9.746;2022-11-27T10:44:57;3.03;;;2.83;;
16516;SDS011;8371;52.272;9.746;2022-11-27T10:47:24;4.60;;;4.30;;
16516;SDS011;8371;52.272;9.746;2022-11-27T10:49:51;3.40;;;3.13;;
16516;SDS011;8371;52.272;9.746;2022-11-27T10:52:17;2.83;;;2.73;;
16516;SDS011;8371;52.272;9.746;2022-11-27T10:54:53;2.87;;;2.77;;
16516;SDS011;8371;52.272;9.746;2022-11-27T11:00:23;3.30;;;3.10;;
16516;SDS011;8371;52.272;9.746;2022-11-27T11:02:59;3.00;;;2.80;;
16516;SDS011;8371;52.272;9.746;2022-11-27T11:05:27;2.90;;;2.80;;
16516;SDS011;8371;52.272;9.746;2022-11-27T11:07:55;3.50;;;3.40;;
16516;SDS011;8371;52.272;9.746;2022-11-27T11:10:37;3.17;;;3.00;;
16516;SDS011;8371;52.272;9.746;2022-11-27T11:13:15;3.33;;;3.23;;
16516;SDS011;8371;52.272;9.746;2022-11-27T11:15:44;3.70;;;3.40;;
16516;SDS011;8371;52.272;9.746;2022-11-27T11:18:25;3.00;;;2.90;;
16516;SDS011;8371;52.272;9.746;2022-11-27T11:20:58;3.37;;;3.17;;
16516;SDS011;8371;52.272;9.746;2022-11-27T11:23:26;3.10;;;3.00;;
16516;SDS011;8371;52.272;9.746;2022-11-27T11:25:56;2.97;;;2.83;;
16516;SDS011;8371;52.272;9.746;2022-11-27T11:28:24;3.00;;;2.90;;
16516;SDS011;8371;52.272;9.746;2022-11-27T11:30:51;3.43;;;3.20;;
16516;SDS011;8371;52.272;9.746;2022-11-27T11:33:19;3.93;;;3.60;;
16516;SDS011;8371;52.272;9.746;2022-11-27T11:35:49;3.37;;;3.27;;
16516;SDS011;8371;52.272;9.746;2022-11-27T11:38:26;3.40;;;3.30;;
16516;SDS011;8371;52.272;9.746;2022-11-27T11:41:05;3.83;;;3.53;;
16516;SDS011;8371;52.272;9.746;2022-11-27T11:43:29;3.43;;;3.23;;
16516;SDS011;8371;52.272;9.746;2022-11-27T11:46:06;3.67;;;3.47;;
16516;SDS011;8371;52.272;9.746;2022-11-27T11:48:32;4.00;;;3.80;;
16516;SDS011;8371;52.272;9.746;2022-11-27T11:51:00;2.97;;;2.80;;
16516;SDS011;8371;52.272;9.746;2022-11-27T11:53:42;3.27;;;3.07;;
16516;SDS011;8371;52.272;9.746;2022-11-27T11:58:56;3.20;;;3.00;;
16516;SDS011;8371;52.272;9.746;2022-11-27T12:01:35;3.20;;;3.10;;
16516;SDS011;8371;52.272;9.746;2022-11-27T12:07:10;2.77;;;2.60;;
16516;SDS011;8371;52.272;9.746;2022-11-27T12:12:27;3.20;;;2.97;;
16516;SDS011;8371;52.272;9.746;2022-11-27T12:15:02;2.70;;;2.60;;
16516;SDS011;8371;52.272;9.746;2022-11-27T12:20:26;2.20;;;2.10;;
16516;SDS011;8371;52.272;9.746;2022-11-27T12:23:27;2.50;;;2.40;;
16516;SDS011;8371;52.272;9.746;2022-11-27T12:25:56;2.00;;;1.93;;
16516;SDS011;8371;52.272;9.746;2022-11-27T12:28:35;2.37;;;2.27;;
16516;SDS011;8371;52.272;9.746;2022-11-27T12:34:20;2.50;;;2.30;;
16516;SDS011;8371;52.272;9.746;2022-11-27T12:42:18;3.03;;;2.93;;
16516;SDS011;8371;52.272;9.746;2022-11-27T12:47:36;2.60;;;2.50;;
16516;SDS011;8371;52.272;9.746;2022-11-27T12:52:43;2.70;;;2.60;;
16516;SDS011;8371;52.272;9.746;2022-11-27T12:55:17;2.33;;;2.23;;
16516;SDS011;8371;52.272;9.746;2022-11-27T12:57:50;2.47;;;2.27;;
16516;SDS011;8371;52.272;9.746;2022-11-27T13:00:21;2.63;;;2.10;;
16516;SDS011;8371;52.272;9.746;2022-11-27T13:02:54;2.03;;;1.93;;
16516;SDS011;8371;52.272;9.746;2022-11-27T13:05:39;2.27;;;2.17;;
16516;SDS011;8371;52.272;9.746;2022-11-27T13:08:26;2.13;;;2.03;;
16516;SDS011;8371;52.272;9.746;2022-11-27T13:11:06;1.90;;;1.80;;
16516;SDS011;8371;52.272;9.746;2022-11-27T13:13:30;2.50;;;2.30;;
16516;SDS011;8371;52.272;9.746;2022-11-27T13:18:44;2.67;;;2.47;;
16516;SDS011;8371;52.272;9.746;2022-11-27T13:21:28;2.23;;;2.13;;
16516;SDS011;8371;52.272;9.746;2022-11-27T13:23:58;2.67;;;1.90;;
16516;SDS011;8371;52.272;9.746;2022-11-27T13:26:49;2.00;;;1.90;;
16516;SDS011;8371;52.272;9.746;2022-11-27T13:29:29;1.87;;;1.77;;
16516;SDS011;8371;52.272;9.746;2022-11-27T13:32:06;2.00;;;1.90;;
16516;SDS011;8371;52.272;9.746;2022-11-27T13:34:40;1.90;;;1.90;;
16516;SDS011;8371;52.272;9.746;2022-11-27T13:37:09;2.00;;;1.90;;
16516;SDS011;8371;52.272;9.746;2022-11-27T13:39:44;1.93;;;1.87;;
16516;SDS011;8371;52.272;9.746;2022-11-27T13:44:53;2.07;;;1.97;;
16516;SDS011;8371;52.272;9.746;2022-11-27T13:47:22;2.13;;;2.03;;
16516;SDS011;8371;52.272;9.746;2022-11-27T13:50:01;1.43;;;1.43;;
16516;SDS011;8371;52.272;9.746;2022-11-27T13:52:28;1.77;;;1.73;;
16516;SDS011;8371;52.272;9.746;2022-11-27T13:54:58;1.73;;;1.63;;
16516;SDS011;8371;52.272;9.746;2022-11-27T13:57:34;1.70;;;1.70;;
16516;SDS011;8371;52.272;9.746;2022-11-27T14:00:02;1.70;;;1.70;;
16516;SDS011;8371;52.272;9.746;2022-11-27T14:02:47;3.13;;;2.23;;
16516;SDS011;8371;52.272;9.746;2022-11-27T14:05:15;1.63;;;1.53;;
16516;SDS011;8371;52.272;9.746;2022-11-27T14:07:44;2.13;;;2.03;;
16516;SDS011;8371;52.272;9.746;2022-11-27T14:10:20;1.70;;;1.60;;
16516;SDS011;8371;52.272;9.746;2022-11-27T14:12:54;1.97;;;1.90;;
16516;SDS011;8371;52.272;9.746;2022-11-27T14:15:23;1.80;;;1.70;;
16516;SDS011;8371;52.272;9.746;2022-11-27T14:17:51;1.80;;;1.70;;
16516;SDS011;8371;52.272;9.746;2022-11-27T14:20:21;1.60;;;1.60;;
16516;SDS011;8371;52.272;9.746;2022-11-27T14:22:50;2.13;;;1.93;;
16516;SDS011;8371;52.272;9.746;2022-11-27T14:27:48;2.17;;;1.60;;
16516;SDS011;8371;52.272;9.746;2022-11-27T14:30:38;1.87;;;1.77;;
16516;SDS011;8371;52.272;9.746;2022-11-27T14:33:03;3.03;;;2.00;;
16516;SDS011;8371;52.272;9.746;2022-11-27T14:35:29;2.17;;;2.07;;
16516;SDS011;8371;52.272;9.746;2022-11-27T14:38:12;2.17;;;1.93;;
16516;SDS011;8371;52.272;9.746;2022-11-27T14:40:39;1.57;;;1.50;;
16516;SDS011;8371;52.272;9.746;2022-11-27T14:43:23;2.20;;;2.10;;
16516;SDS011;8371;52.272;9.746;2022-11-27T14:45:46;2.00;;;1.90;;
16516;SDS011;8371;52.272;9.746;2022-11-27T14:48:17;1.70;;;1.60;;
16516;SDS011;8371;52.272;9.746;2022-11-27T14:50:47;2.00;;;1.63;;
16516;SDS011;8371;52.272;9.746;2022-11-27T14:53:14;1.67;;;1.50;;
16516;SDS011;8371;52.272;9.746;2022-11-27T14:55:42;2.10;;;2.00;;
16516;SDS011;8371;52.272;9.746;2022-11-27T14:58:11;1.50;;;1.50;;
16516;SDS011;8371;52.272;9.746;2022-11-27T15:00:37;1.80;;;1.77;;
16516;SDS011;8371;52.272;9.746;2022-11-27T15:03:08;1.90;;;1.80;;
16516;SDS011;8371;52.272;9.746;2022-11-27T15:05:35;1.80;;;1.70;;
16516;SDS011;8371;52.272;9.746;2022-11-27T15:08:02;1.80;;;1.70;;
16516;SDS011;8371;52.272;9.746;2022-11-27T15:10:31;1.83;;;1.73;;
16516;SDS011;8371;52.272;9.746;2022-11-27T15:13:02;1.70;;;1.60;;
16516;SDS011;8371;52.272;9.746;2022-11-27T15:15:31;1.63;;;1.63;;
16516;SDS011;8371;52.272;9.746;2022-11-27T15:18:00;1.90;;;1.83;;
16516;SDS011;8371;52.272;9.746;2022-11-27T15:20:36;2.07;;;1.97;;
16516;SDS011;8371;52.272;9.746;2022-11-27T15:23:16;1.80;;;1.70;;
16516;SDS011;8371;52.272;9.746;2022-11-27T15:26:02;2.23;;;2.13;;
16516;SDS011;8371;52.272;9.746;2022-11-27T15:28:33;1.97;;;1.93;;
16516;SDS011;8371;52.272;9.746;2022-11-27T15:31:01;2.20;;;2.10;;
16516;SDS011;8371;52.272;9.746;2022-11-27T15:33:32;2.57;;;2.47;;
16516;SDS011;8371;52.272;9.746;2022-11-27T15:36:19;2.10;;;2.10;;
16516;SDS011;8371;52.272;9.746;2022-11-27T15:38:43;1.87;;;1.77;;
16516;SDS011;8371;52.272;9.746;2022-11-27T15:41:18;2.20;;;2.10;;
16516;SDS011;8371;52.272;9.746;2022-11-27T15:43:49;1.97;;;1.87;;
16516;SDS011;8371;52.272;9.746;2022-11-27T15:46:15;2.10;;;2.00;;
16516;SDS011;8371;52.272;9.746;2022-11-27T15:48:49;2.20;;;2.10;;
16516;SDS011;8371;52.272;9.746;2022-11-27T15:51:15;2.00;;;1.90;;
16516;SDS011;8371;52.272;9.746;2022-11-27T15:53:40;2.70;;;2.50;;
16516;SDS011;8371;52.272;9.746;2022-11-27T15:56:06;2.00;;;2.00;;
16516;SDS011;8371;52.272;9.746;2022-11-27T15:58:32;1.70;;;1.70;;
16516;SDS011;8371;52.272;9.746;2022-11-27T16:00:58;2.00;;;1.90;;
16516;SDS011;8371;52.272;9.746;2022-11-27T16:03:23;2.77;;;2.67;;
16516;SDS011;8371;52.272;9.746;2022-11-27T16:05:49;2.53;;;2.43;;
16516;SDS011;8371;52.272;9.746;2022-11-27T16:08:15;2.60;;;2.50;;
16516;SDS011;8371;52.272;9.746;2022-11-27T16:10:41;2.87;;;2.27;;
16516;SDS011;8371;52.272;9.746;2022-11-27T16:13:07;2.37;;;2.27;;
16516;SDS011;8371;52.272;9.746;2022-11-27T16:15:33;2.37;;;2.27;;
16516;SDS011;8371;52.272;9.746;2022-11-27T16:17:59;1.90;;;1.90;;
16516;SDS011;8371;52.272;9.746;2022-11-27T16:20:25;2.60;;;2.40;;
16516;SDS011;8371;52.272;9.746;2022-11-27T16:22:52;2.00;;;1.90;;
16516;SDS011;8371;52.272;9.746;2022-11-27T16:25:17;2.33;;;2.20;;